logo
App data

Greed: Black Border

Hack ‘n slash your way through this science-fiction-themed action/RPG. In the futuristic universe of GREED, the discovery of new interstellar travel possibilities has led to a new age of colonialization. The five largest colonial powers are entangled in a full-scale war over a new element called Ikarium, the recently discovered rare...
Store | Hub | SteamDB
Developer: Headup Games, Clockstone Publisher: Headup Games
Genre: Action, RPG
Languages: English, German
Tags: Action (45), RPG (40), Sci-fi (19), Action RPG (18), Co-op (15), Indie (12), Isometric (12), Singleplayer (9), Loot (5)
Category: Single-player, Co-op
Release date: Jan 13, 2010
Price: $4.99
Score rank: 8% Userscore: 44% Old userscore: 41%
Owners: 100,000 .. 200,000
Followers: 537
Playtime total: 05:02 (average) 00:26 (median)

Steam Spy is still in beta, so expect major bugs.

Owners data:

Access restricted.

This feature is only available to users with special access rights. Sorry.

If you want to proceed, you need to register or log in first and then back Steam Spy on Patreon. Look for Indie or Pro pledge.

Don't forget to use the same email as on Steam Spy!

Audience in 2 weeks:

Access restricted.

This feature is only available to users with special access rights. Sorry.

If you want to proceed, you need to register or log in first and then back Steam Spy on Patreon. Look for Indie or Pro pledge.

Don't forget to use the same email as on Steam Spy!

Peak daily concurrent players:

CCU data courtesy of SteamDB. Used with permission.

Hourly concurrent players:

YouTube:

The views data is based on top 50 videos uploaded last week. Actual number of views might be more than the number shown.

The displayed number of videos uploaded yesterday is limited to 50, so if there were more videos uploaded, the number will still show 50.

If the game has commonly used word as its name (like "FEAR" or "Volume") its number of Youtube views might be wrong.

Games similar to this one:

# Game Release date
Price
Score rank
(Userscore / Metascore)
Owners
Players
Playtime (Median)
1 Umihara Kawase Nov 2, 2015 $9.9999% (98%)0 .. 20,0000%00:00 (00:00)
2 Hide & Spook: The Haunted Alchemist Oct 28, 2016 FreeN/A (N/A)0 .. 20,0000%00:00 (00:00)
3 Aaero Apr 11, 2017 $14.9993% (95%)0 .. 20,0006.25%00:09 (00:03)
4 A-10 VR Apr 5, 2016 $4.9993% (95%)0 .. 20,0000%00:00 (00:00)
5 The Dishwasher: Vampire Smile May 12, 2017 $9.9993% (95%)0 .. 20,0000%00:00 (00:00)
6 Bio Menace Aug 3, 1993 N/AN/A (N/A)0 .. 20,0000%00:00 (00:00)
7 JUJU Dec 10, 2014 $19.9990% (94%/65%)0 .. 20,0000%00:00 (00:00)
8 Guns, Gore & Cannoli Apr 30, 2015 $9.9987% (93%/74%)50,000 .. 100,0002.53%00:16 (00:10)
9 NotCoD May 19, 2016 $4.9987% (93%)0 .. 20,0000%00:00 (00:00)
10 Space Ace Aug 27, 2013 $9.9987% (93%)0 .. 20,0000%00:00 (00:00)
11 Terminal Velocity May 1, 1995 $6.99N/A (N/A)20,000 .. 50,0000%00:00 (00:00)
12 Shovel Knight: Specter of Torment Apr 5, 2017 $9.9984% (92%)0 .. 20,0007.69%01:41 (00:33)
13 Immortal Redneck Apr 25, 2017 $19.9584% (92%/70%)50,000 .. 100,0000%00:00 (00:00)
14 Wish Project Mar 22, 2016 $1.99N/A (N/A)0 .. 20,0000%00:00 (00:00)
15 Disney G-Force Oct 6, 2014 $19.9984% (92%/61%)0 .. 20,0000%00:00 (00:00)
16 Deadhunt Mar 28, 2005 $4.9980% (91%)0 .. 20,0000%00:00 (00:00)
17 Tokyo Babel Mar 31, 2016 $34.9980% (91%)0 .. 20,0000%00:00 (00:00)
18 A Rose in the Twilight / ロゼと黄昏の古城 Apr 11, 2017 $19.9980% (91%)0 .. 20,0000%00:00 (00:00)
19 Charlie Murder May 12, 2017 $9.9980% (91%)0 .. 20,0005.56%04:31 (01:30)
20 Hyphen Feb 12, 2015 N/AN/A (N/A)0 .. 20,00025%00:05 (00:02)
21 Xmas Shooting - Scramble!! Dec 16, 2016 $4.9977% (90%)0 .. 20,0003.85%00:14 (00:04)
22 A Lenda do Herói - O Herói desta Canção Apr 24, 2017 $15.9977% (90%)20,000 .. 50,0000%00:00 (00:00)
23 Mayhem Triple Sep 4, 2015 $4.99N/A (N/A)0 .. 20,0000%00:00 (00:00)
24 Requiem: Avenging Angel Mar 31, 1999 $9.99N/A (N/A)0 .. 20,0000%00:00 (00:00)
25 Twisted Arrow Mar 28, 2017 $14.9971% (88%)0 .. 20,0000%00:00 (00:00)
26 Neighborhorde Jun 5, 2017 $4.99N/A (N/A)0 .. 20,0000%00:00 (00:00)
27 SPINGUN Nov 11, 2016 $1.9971% (88%)0 .. 20,0000%00:00 (00:00)
28 Word Rescue May 1, 1992 $4.99N/A (N/A)0 .. 20,0000%00:00 (00:00)
29 Mystik Belle May 22, 2015 $14.9969% (87%)0 .. 20,0000%00:00 (00:00)
30 Super Rad Raygun Nov 15, 2016 $4.99N/A (N/A/64%)0 .. 20,00025%00:16 (00:08)
31 Rocket Fist May 12, 2016 $4.9966% (86%)0 .. 20,0000%00:00 (00:00)
32 Disney Princess: My Fairytale Adventure Oct 6, 2014 $19.9966% (86%)0 .. 20,0000%00:00 (00:00)
33 2 Ninjas 1 Cup Feb 3, 2017 $0.9963% (85%)0 .. 20,0004.17%02:29 (00:49)
34 Stargunner Nov 19, 1996 Free63% (85%)0 .. 20,0000%00:00 (00:00)
35 Skylar & Plux: Adventure On Clover Island May 19, 2017 $14.9963% (85%)0 .. 20,0000%00:00 (00:00)
36 Spaceman Sparkles 3 Mar 21, 2016 $4.99N/A (N/A)0 .. 20,0000%00:00 (00:00)
37 Vintage Year Jan 2, 2015 $2.9963% (85%)20,000 .. 50,0000%00:00 (00:00)
38 Scribble Ships Mar 29, 2017 $1.99N/A (N/A)0 .. 20,0000%00:00 (00:00)
39 Disney's Chicken Little Feb 24, 2015 $9.9963% (85%)0 .. 20,0000%00:00 (00:00)
40 Nongünz May 19, 2017 $6.9961% (84%)100,000 .. 200,0000.32%00:01 (00:00)
41 BULLET SOUL / バレットソウル - 弾魂 - Apr 7, 2017 $14.99N/A (N/A/76%)0 .. 20,0000%00:00 (00:00)
42 Isbarah Feb 25, 2015 $13.99N/A (N/A)20,000 .. 50,0000%00:00 (00:00)
43 Nandeyanen!? - The 1st Sûtra Jul 22, 2015 $1.99N/A (N/A)0 .. 20,0000%00:00 (00:00)
44 Lightblade VR May 31, 2016 $3.9958% (83%)50,000 .. 100,0002.63%00:01 (00:00)
45 I Am The Hero Jan 16, 2017 $9.9958% (83%)20,000 .. 50,0000%00:00 (00:00)
46 Suicide Guy Jul 14, 2017 $4.9958% (83%)100,000 .. 200,0001.85%00:07 (00:02)
47 Spaceman Sparkles 2 May 20, 2015 $2.9958% (83%)0 .. 20,0000%00:00 (00:00)
48 Skyhook May 17, 2016 $4.9956% (82%)0 .. 20,0000%00:00 (00:00)
49 Fighties Jul 13, 2015 $4.9956% (82%)0 .. 20,0000%00:00 (00:00)
50 Dimensional Dec 14, 2016 $4.99N/A (N/A)0 .. 20,0000%00:00 (00:00)
51 forma.8 Feb 23, 2017 $9.99N/A (N/A)0 .. 20,0000%00:00 (00:00)
52 Wicce May 5, 2016 $4.9956% (82%)0 .. 20,00014.29%04:59 (01:39)
53 Rosenkreuzstilette Feb 2, 2017 $9.9954% (81%)0 .. 20,00012.5%00:19 (00:06)
54 NeonXSZ Feb 22, 2016 $14.9951% (80%)0 .. 20,0000%00:00 (00:00)
55 Toukiden 2 Mar 21, 2017 $59.9949% (79%/73%)20,000 .. 50,0000%00:00 (00:00)
56 Gnomes Vs. Fairies: Greckel's Quest Jul 1, 2016 $9.9949% (79%)0 .. 20,0000%00:00 (00:00)
57 Caladrius Blaze Jan 12, 2017 $24.9949% (79%)0 .. 20,00011.11%02:42 (01:48)
58 Airport Madness: World Edition May 28, 2015 $9.9949% (79%)20,000 .. 50,0000%00:00 (00:00)
59 Xenocide Aug 28, 2015 $2.99N/A (N/A)0 .. 20,0000%00:00 (00:00)
60 Quick Draw Jan 10, 2017 $9.99N/A (N/A)0 .. 20,0000%00:00 (00:00)
61 LUMBERMANCER Jun 28, 2016 $2.99N/A (N/A)0 .. 20,0000%00:00 (00:00)
62 Disney Infinity 3.0: Gold Edition Dec 9, 2016 $29.9945% (77%)0 .. 20,0000%00:00 (00:00)
63 Vertical Drop Heroes HD Jul 25, 2014 $6.9945% (77%/70%)200,000 .. 500,0000%00:00 (00:00)
64 Zombeer Jan 30, 2015 $4.9942% (75%/32%)0 .. 20,0000%00:00 (00:00)
65 Mighty Gunvolt Sep 29, 2015 $4.9942% (75%)20,000 .. 50,0000%00:00 (00:00)
66 Putrefaction 2: Void Walker May 29, 2017 $4.9942% (75%)20,000 .. 50,0004.08%01:21 (00:48)
67 Flinthook Apr 18, 2017 $14.9942% (75%/80%)50,000 .. 100,0002.52%07:04 (06:57)
68 Kraven Manor Sep 26, 2014 $5.9940% (74%/58%)100,000 .. 200,0000%00:00 (00:00)
69 Caravan Sep 30, 2016 $9.9940% (74%)20,000 .. 50,0002.03%01:15 (01:15)
70 [email protected] Feb 9, 2017 $14.9940% (74%/66%)0 .. 20,0000%00:00 (00:00)
71 Aeon May 22, 2017 $19.9938% (73%)0 .. 20,0000%00:00 (00:00)
72 Disney•Pixar Finding Nemo Feb 24, 2015 $9.9936% (72%)0 .. 20,0000%00:00 (00:00)
73 Castle Torgeath: Descent into Darkness Dec 15, 2016 $7.9936% (72%)0 .. 20,0000%00:00 (00:00)
74 Legends of the Universe - StarCore Jul 25, 2016 $3.9935% (71%)0 .. 20,0000%00:00 (00:00)
75 Kill to Collect Apr 6, 2016 $9.9935% (71%/57%)0 .. 20,0000%00:00 (00:00)
76 EPOCH Jun 5, 2014 $1.99N/A (N/A)0 .. 20,0000%00:00 (00:00)
77 Planet of Mubu Apr 1, 2017 $0.5935% (71%)0 .. 20,0000%00:00 (00:00)
78 ABRACA - Imagic Games Mar 31, 2016 $14.99N/A (N/A)0 .. 20,0000%00:00 (00:00)
79 TankZone Battle Sep 21, 2015 $2.4933% (70%)0 .. 20,0000%00:00 (00:00)
80 Xenus 2. White gold. Nov 23, 2016 $14.9933% (70%)0 .. 20,0000%00:00 (00:00)
81 Dungeons & Darkness Sep 29, 2016 $9.9933% (70%)0 .. 20,00020%00:11 (00:05)
82 Arctic Adventure Oct 9, 1991 N/AN/A (N/A)0 .. 20,0000%00:00 (00:00)
83 The Girl and the Robot Aug 17, 2016 $9.9933% (70%)0 .. 20,0000%00:00 (00:00)
84 The Next World Mar 7, 2016 $12.9931% (69%)20,000 .. 50,0000%00:00 (00:00)
85 V ARRR Jun 10, 2016 $9.9931% (69%)0 .. 20,0000%00:00 (00:00)
86 Escape From Nazi Labs Nov 8, 2016 $4.9931% (69%)20,000 .. 50,0000%00:00 (00:00)
87 Wooden Sen'SeY Dec 5, 2013 $9.9930% (68%)20,000 .. 50,0000%00:00 (00:00)
88 Xenon Valkyrie Feb 3, 2017 $9.9928% (67%)0 .. 20,0000%00:00 (00:00)
89 Deathtrap Dungeon Oct 3, 2013 $6.9928% (67%)0 .. 20,0000%00:00 (00:00)
90 Westboro Apr 27, 2017 $17.9928% (67%)0 .. 20,0000%00:00 (00:00)
91 METAGAL May 23, 2016 $3.9927% (66%)0 .. 20,0000%00:00 (00:00)
92 Phantaruk Aug 16, 2016 $4.9927% (66%/53%)20,000 .. 50,0000%00:00 (00:00)
93 Exile's End Aug 31, 2015 $9.99N/A (N/A)0 .. 20,0000%00:00 (00:00)
94 Redux: Dark Matters Dec 12, 2014 $12.99N/A (N/A/61%)0 .. 20,0000%00:00 (00:00)
95 Ruckus Ridge VR Party Apr 5, 2016 $9.99N/A (N/A)0 .. 20,0000%00:00 (00:00)
96 BIOS Dec 13, 2016 $14.9925% (65%)0 .. 20,0000%00:00 (00:00)
97 Disney Alice in Wonderland Oct 6, 2014 $19.9925% (65%/63%)0 .. 20,0000%00:00 (00:00)
98 JET HERO Feb 17, 2017 $3.99N/A (N/A)0 .. 20,0000%00:00 (00:00)
99 King Lucas Dec 1, 2016 $4.9925% (65%)20,000 .. 50,0000%00:00 (00:00)
100 Tank Brawl Apr 20, 2016 $4.99N/A (N/A)0 .. 20,0000%00:00 (00:00)
101 Epigenesis Aug 1, 2014 Free25% (65%)200,000 .. 500,0000.22%02:30 (00:50)
102 Masked Forces Nov 23, 2016 $0.9924% (64%)50,000 .. 100,0001.82%00:12 (00:04)
103 Cavern of Time Feb 10, 2017 $3.99N/A (N/A)0 .. 20,0000%00:00 (00:00)
104 Marble Mountain Apr 5, 2016 $4.9924% (64%)0 .. 20,0000%00:00 (00:00)
105 Zombie Camp: Last Survivor Apr 17, 2015 $1.99N/A (N/A)0 .. 20,0000%00:00 (00:00)
106 Alpha Zylon Jul 15, 2014 $4.9923% (63%)0 .. 20,0000%00:00 (00:00)
107 Momento Temporis: Light from the Deep Oct 27, 2016 $4.99N/A (N/A)0 .. 20,0000%00:00 (00:00)
108 Crazy Catman Jun 1, 2017 $0.9922% (62%)0 .. 20,0000%00:00 (00:00)
109 Silver Bullet: Prometheus Apr 8, 2016 $4.9921% (61%)0 .. 20,0000%00:00 (00:00)
110 Majestic Nights Oct 30, 2014 $4.9920% (60%/32%)0 .. 20,0000%00:00 (00:00)
111 Pane In The Glass Aug 8, 2016 $4.99N/A (N/A)0 .. 20,0000%00:00 (00:00)
112 Q*bert: Rebooted Jul 7, 2014 N/A20% (60%)0 .. 20,0000%00:00 (00:00)
113 The Ruins: VR Escape the Room Apr 13, 2017 $5.99N/A (N/A)0 .. 20,0000%00:00 (00:00)
114 Nightmare on Azathoth Oct 30, 2015 $0.99N/A (N/A)0 .. 20,0000%00:00 (00:00)
115 I, Gladiator Apr 7, 2015 $7.9920% (60%)0 .. 20,0000%00:00 (00:00)
116 Yar's Revenge Apr 28, 2011 $9.99N/A (N/A/56%)0 .. 20,0000%00:00 (00:00)
117 Redneck Rampage Apr 30, 1997 $9.99N/A (N/A)0 .. 20,0000%00:00 (00:00)
118 Bladestar Jan 15, 2016 $9.99N/A (N/A)0 .. 20,0000%00:00 (00:00)
119 Chasing Dead Mar 3, 2016 $9.9915% (56%)0 .. 20,0000%00:00 (00:00)
120 Shadowcrypt Sep 15, 2014 $4.9915% (56%)0 .. 20,0000%00:00 (00:00)
121 The Curse of Nordic Cove Apr 23, 2015 $0.99N/A (N/A)0 .. 20,0000%00:00 (00:00)
122 Fossil Echo Jul 8, 2016 $9.9915% (56%/61%)0 .. 20,0000%00:00 (00:00)
123 Princess Kaguya: Legend of the Moon Warrior Aug 4, 2015 $10.99N/A (N/A)0 .. 20,0000%00:00 (00:00)
124 QUALIA 3: Multi Agent Apr 18, 2014 $4.99N/A (N/A)0 .. 20,0000%00:00 (00:00)
125 Predator Simulator May 15, 2015 $7.9913% (53%)20,000 .. 50,0000%00:00 (00:00)
126 Police Quest: SWAT Sep 30, 1995 $5.99N/A (N/A)0 .. 20,0000%00:00 (00:00)
127 Mobile Light Force (aka Gunbird) Jul 17, 2015 $4.99N/A (N/A)0 .. 20,0000%00:00 (00:00)
128 Scooby Doo! & Looney Tunes Cartoon Universe: Adventure Jul 16, 2014 $19.99N/A (N/A)0 .. 20,0000%00:00 (00:00)
129 Project Root May 1, 2014 $9.9911% (49%)20,000 .. 50,0000%00:00 (00:00)
130 Super Dungeon Bros Nov 1, 2016 $19.9910% (48%)0 .. 20,0000%00:00 (00:00)
131 Grimm: Dark Legacy Nov 2, 2016 $14.999% (46%)0 .. 20,0000%00:00 (00:00)
132 Fabula Mortis Oct 27, 2014 $7.999% (46%)0 .. 20,0000%00:00 (00:00)
133 Red Johnson's Chronicles - 1+2 - Steam Special Edition Sep 5, 2014 $9.99N/A (N/A)20,000 .. 50,0000%00:00 (00:00)
134 Dusk 12 Aug 22, 2014 $3.998% (44%)0 .. 20,0000%00:00 (00:00)
135 Plancon: Space Conflict Aug 8, 2016 $6.998% (44%)20,000 .. 50,0000%00:00 (00:00)
136 Infinium Strike Jul 14, 2016 $9.998% (43%)0 .. 20,0000%00:00 (00:00)
137 Crouching Pony Hidden Dragon Jul 14, 2014 $9.997% (42%)20,000 .. 50,0000%00:00 (00:00)
138 iStorm Mar 16, 2017 Free7% (41%)0 .. 20,0000%00:00 (00:00)
139 Damage Inc. Pacific Squadron WWII Aug 28, 2012 $39.99N/A (N/A)0 .. 20,0000%00:00 (00:00)
140 Blinding Dark Aug 12, 2014 $9.996% (40%)20,000 .. 50,0000%00:00 (00:00)
141 Beyond Space Remastered Edition Jun 18, 2014 $4.996% (38%)20,000 .. 50,0000%00:00 (00:00)
142 Raiden Legacy - Steam Edition Dec 10, 2015 $9.996% (38%)0 .. 20,0000%00:00 (00:00)
143 Polterheist Feb 21, 2017 $4.996% (38%)0 .. 20,0000%00:00 (00:00)
144 CDF Ghostship Jun 26, 2015 $0.994% (33%)0 .. 20,0000%00:00 (00:00)
145 Disney Fairies: Tinker Bell's Adventure Oct 6, 2014 $19.99N/A (N/A)0 .. 20,0000%00:00 (00:00)
146 Hush Jul 29, 2015 $9.99N/A (N/A)0 .. 20,0000%00:00 (00:00)
147 Masterspace Jun 15, 2015 $7.993% (28%)0 .. 20,0000%00:00 (00:00)
148 Xenophage: Alien Bloodsport Dec 29, 1995 N/AN/A (N/A)20,000 .. 50,0000%00:00 (00:00)
149 NightZ Feb 14, 2017 $0.993% (27%)20,000 .. 50,0000%00:00 (00:00)
150 Alone in the Dark: Illumination Jun 11, 2015 $19.992% (24%)0 .. 20,0000%00:00 (00:00)
151 Battle For The Sun Jul 22, 2015 $4.992% (20%)0 .. 20,0000%00:00 (00:00)
152 Xmas Zombie Rampage Dec 21, 2016 $9.99N/A (N/A)0 .. 20,0000%00:00 (00:00)
153 Iron Soul Feb 26, 2014 $4.991% (5%)0 .. 20,0000%00:00 (00:00)

Tags over time:

Access restricted.

This feature is only available to users with special access rights. Sorry.

If you want to proceed, you need to register or log in first and then back Steam Spy on Patreon. Look for Indie or Pro pledge.

Don't forget to use the same email as on Steam Spy!

Owners of this game also own:

Access restricted.

This feature is only available to users with special access rights. Sorry.

If you want to proceed, you need to register or log in first and then back Steam Spy on Patreon. Look for Indie or Pro pledge.

Don't forget to use the same email as on Steam Spy!

Playtime distribution:

Access restricted.

This feature is only available to users with special access rights. Sorry.

If you want to proceed, you need to register or log in first and then back Steam Spy on Patreon. Look for Indie or Pro pledge.

Don't forget to use the same email as on Steam Spy!

Playtime (2 weeks):

Access restricted.

This feature is only available to users with special access rights. Sorry.

If you want to proceed, you need to register or log in first and then back Steam Spy on Patreon. Look for Indie or Pro pledge.

Don't forget to use the same email as on Steam Spy!

User reviews:

Login required.

Please register or log in to see this information.